Weather reports worldwide

Advertisment
Casale Monferrato, Italy (16068): temperature & dewpoint: 16.07.2019 21:00:00 - 22.07.2019 21:00:00 (CEST)Casale Monferrato, Italy (16068): wind speed: 16.07.2019 21:00:00 - 22.07.2019 21:00:00 (CEST)Casale Monferrato, Italy (16068): wind direction: 16.07.2019 21:00:00 - 22.07.2019 21:00:00 (CEST)Casale Monferrato, Italy (16068): reduced air pressure: 16.07.2019 21:00:00 - 22.07.2019 21:00:00 (CEST)Casale Monferrato, Italy (16068): precipitation: 16.07.2019 21:00:00 - 22.07.2019 21:00:00 (CEST)
Date & Time tt [°C] td [°C] ff [km/h] ff [kn] dd ppp [hPa] rr [mm]
22.07.2019 21:00:00 - - - - - - -
22.07.2019 20:00:00 30,7 25,5 8 4 ENE - -
22.07.2019 19:00:00 31,4 25,8 9 5 E - -
22.07.2019 18:00:00 - - - - - - -
22.07.2019 17:00:00 32,3 25,4 8 4 ESE - -
22.07.2019 16:00:00 32,0 25,6 8 4 ESE - -
22.07.2019 15:00:00 31,7 25,3 4 2 WNW - -
22.07.2019 14:00:00 31,3 25,4 8 4 SE - -
22.07.2019 13:00:00 30,9 26,2 4 2 WNW - -
22.07.2019 12:00:00 29,4 25,3 4 2 E - -
22.07.2019 11:00:00 27,8 25,0 4 2 NNE 1022,3 -
22.07.2019 10:00:00 25,8 24,0 5 3 N 1022,4 -
22.07.2019 09:00:00 24,1 22,7 2 1 WSW 1022,5 -
22.07.2019 08:00:00 21,7 20,6 4 2 WSW 1022,3 -
22.07.2019 07:00:00 20,5 19,3 4 2 W 1022,1 -
22.07.2019 06:00:00 20,4 19,2 0 0 N 1021,8 -
22.07.2019 05:00:00 20,2 18,8 4 2 E 1021,3 -
22.07.2019 04:00:00 21,4 20,0 2 1 W 1021,1 -
22.07.2019 03:00:00 21,7 20,1 2 1 W 1021,1 -
22.07.2019 02:00:00 22,2 20,4 4 2 SSW 1020,7 -
22.07.2019 01:00:00 - - - - - - -
22.07.2019 00:00:00 - - - - - - -
21.07.2019 23:00:00 25,0 20,8 9 5 SSW - -
21.07.2019 22:00:00 25,8 21,4 8 4 SSW - -
21.07.2019 21:00:00 - - - - - - -
21.07.2019 20:00:00 29,6 24,2 13 7 SSW - -
21.07.2019 19:00:00 31,0 24,6 13 7 SSW - -
21.07.2019 18:00:00 32,1 23,9 11 6 S - -
21.07.2019 17:00:00 31,3 23,9 2 1 W - -
21.07.2019 16:00:00 30,9 23,8 5 3 NNW - -
21.07.2019 15:00:00 30,9 23,3 4 2 N - -
21.07.2019 14:00:00 31,6 24,2 5 3 S - -
21.07.2019 13:00:00 29,9 23,3 2 1 W - -
21.07.2019 12:00:00 29,1 22,8 4 2 SW - -
21.07.2019 11:00:00 27,7 22,1 8 4 E 1019,3 -
21.07.2019 10:00:00 26,2 21,1 4 2 WSW 1019,3 -
21.07.2019 09:00:00 24,9 21,4 4 2 NW 1019,3 -
21.07.2019 08:00:00 22,4 20,8 2 1 SW 1019,2 -
21.07.2019 07:00:00 19,6 18,2 0 0 N 1019,2 -
21.07.2019 06:00:00 19,3 17,7 2 1 WSW 1019,2 -
21.07.2019 05:00:00 19,6 17,9 4 2 WSW 1018,6 -
21.07.2019 04:00:00 19,7 17,2 2 1 W 1018,5 -
21.07.2019 03:00:00 20,4 16,6 2 1 WSW 1018,5 -
21.07.2019 02:00:00 21,9 16,3 4 2 SW 1018,5 -
21.07.2019 01:00:00 21,9 15,2 4 2 SSW - -
21.07.2019 00:00:00 23,2 15,4 5 3 SSW - -
20.07.2019 23:00:00 24,4 15,5 4 2 WSW - -
20.07.2019 22:00:00 24,9 17,0 8 4 S - -
20.07.2019 21:00:00 26,8 18,1 5 3 SSW - -
20.07.2019 20:00:00 28,6 19,2 11 6 SSW - 0,0
20.07.2019 19:00:00 29,6 19,6 9 5 SSW - -
20.07.2019 18:00:00 30,0 23,4 4 2 NE - -
20.07.2019 17:00:00 30,7 23,1 8 4 NNE - -
20.07.2019 16:00:00 30,6 22,4 9 5 E - -
20.07.2019 15:00:00 30,9 21,6 4 2 NNW - -
20.07.2019 14:00:00 29,7 20,5 8 4 NE - -
20.07.2019 13:00:00 28,9 19,8 9 5 ENE - -
20.07.2019 12:00:00 28,8 19,9 8 4 ESE - -
20.07.2019 11:00:00 27,4 20,4 8 4 ESE 1017,8 -
20.07.2019 10:00:00 25,9 19,7 4 2 NE 1017,6 -
20.07.2019 09:00:00 24,1 19,3 2 1 S 1017,5 -
20.07.2019 08:00:00 21,4 19,3 2 1 W 1017,3 -
20.07.2019 07:00:00 18,5 16,9 0 0 N 1017,2 -
20.07.2019 06:00:00 18,3 16,6 4 2 W 1017,0 -
20.07.2019 05:00:00 19,0 16,9 4 2 W 1016,8 -
20.07.2019 04:00:00 19,8 17,1 0 0 N 1016,5 -
20.07.2019 03:00:00 19,8 16,8 0 0 N 1016,6 -
20.07.2019 02:00:00 21,7 17,4 4 2 SW 1016,4 -
20.07.2019 01:00:00 22,2 17,5 4 2 WSW - -
20.07.2019 00:00:00 22,6 18,7 4 2 WSW - -
19.07.2019 23:00:00 22,9 20,4 4 2 WSW - -
19.07.2019 22:00:00 24,2 20,5 4 2 WSW - -
19.07.2019 21:00:00 25,6 19,9 4 2 SSE - -
19.07.2019 20:00:00 28,5 20,2 5 3 NNE - -
19.07.2019 19:00:00 28,9 20,8 11 6 NE - -
19.07.2019 18:00:00 29,3 21,2 11 6 NNE - -
19.07.2019 17:00:00 30,0 19,9 8 4 ESE - -
19.07.2019 16:00:00 29,4 22,1 4 2 ENE - -
19.07.2019 15:00:00 29,0 22,4 5 3 E - -
19.07.2019 14:00:00 28,5 21,2 11 6 ESE - -
19.07.2019 13:00:00 27,3 22,0 9 5 E - -
19.07.2019 12:00:00 26,6 22,2 8 4 SSE - -
19.07.2019 11:00:00 25,1 21,7 5 3 NE 1016,4 -
19.07.2019 10:00:00 23,5 21,7 2 1 SE 1016,3 -
19.07.2019 09:00:00 21,9 20,1 4 2 E 1016,2 -
19.07.2019 08:00:00 20,8 19,4 4 2 N 1015,9 -
19.07.2019 07:00:00 19,7 18,5 5 3 N 1015,6 -
19.07.2019 06:00:00 19,8 18,4 5 3 N 1015,3 -
19.07.2019 05:00:00 20,2 18,8 4 2 NNW 1014,9 -
19.07.2019 04:00:00 19,9 18,8 5 3 NNW 1014,6 -
19.07.2019 03:00:00 18,9 17,5 4 2 WNW 1014,6 -
19.07.2019 02:00:00 19,7 18,1 4 2 W 1014,4 -
19.07.2019 01:00:00 19,8 18,2 4 2 W 1014,2 -
19.07.2019 00:00:00 20,9 19,1 0 0 N 1013,6 -
18.07.2019 23:00:00 21,5 18,6 4 2 N - -
18.07.2019 22:00:00 23,2 18,7 4 2 WNW - -
18.07.2019 21:00:00 25,5 19,3 0 0 N - -
18.07.2019 20:00:00 26,2 20,0 5 3 ENE - -
18.07.2019 19:00:00 27,2 21,4 4 2 NE - -
18.07.2019 18:00:00 27,9 20,9 8 4 NNE - -
18.07.2019 17:00:00 28,1 20,1 5 3 NE - -
18.07.2019 16:00:00 28,1 19,3 5 3 S - -
18.07.2019 15:00:00 27,5 18,7 9 5 NE - -
18.07.2019 14:00:00 27,9 19,1 9 5 ENE - -
18.07.2019 13:00:00 26,7 18,8 9 5 E - -
18.07.2019 12:00:00 26,0 18,3 9 5 ESE 1012,5 -
18.07.2019 11:00:00 24,8 19,3 8 4 ESE 1012,2 -
18.07.2019 10:00:00 23,2 20,9 0 0 N 1012,2 -
18.07.2019 09:00:00 20,9 19,3 2 1 ESE 1011,9 -
18.07.2019 08:00:00 18,5 17,3 0 0 N 1011,5 0,0
18.07.2019 07:00:00 17,6 16,2 4 2 WSW 1011,1 -
18.07.2019 06:00:00 17,7 16,1 4 2 W 1010,9 -
18.07.2019 05:00:00 17,9 16,3 2 1 WSW 1010,4 -
18.07.2019 04:00:00 17,7 16,1 2 1 W 1010,5 -
18.07.2019 03:00:00 18,1 16,4 2 1 WSW 1010,7 -
18.07.2019 02:00:00 18,4 16,1 2 1 W 1010,8 -
18.07.2019 01:00:00 18,9 15,3 2 1 W 1010,8 -
18.07.2019 00:00:00 20,2 14,0 4 2 SSW 1010,6 -
17.07.2019 23:00:00 20,0 15,1 4 2 S - -
17.07.2019 22:00:00 22,1 15,1 0 0 N - -
17.07.2019 21:00:00 24,7 15,0 8 4 SSW - -
17.07.2019 20:00:00 27,5 14,8 11 6 SSW - -
17.07.2019 19:00:00 28,7 16,6 13 7 SSW - -
17.07.2019 18:00:00 29,4 17,2 15 8 S - -
17.07.2019 17:00:00 30,6 18,0 13 7 SE - -
17.07.2019 16:00:00 30,2 18,3 15 8 SSE - -
17.07.2019 15:00:00 29,6 16,7 11 6 ESE - -
17.07.2019 14:00:00 29,3 19,6 9 5 ESE - -
17.07.2019 13:00:00 27,9 20,9 9 5 E - -
17.07.2019 12:00:00 26,7 18,8 8 4 ESE 1012,7 -
17.07.2019 11:00:00 25,2 20,0 4 2 SSW 1013,1 -
17.07.2019 10:00:00 22,8 19,9 4 2 NNE 1013,5 -
17.07.2019 09:00:00 21,2 19,4 4 2 NNE 1013,7 -
17.07.2019 08:00:00 19,3 18,3 0 0 N 1013,7 -
17.07.2019 07:00:00 16,6 15,4 2 1 W 1013,6 -
17.07.2019 06:00:00 16,2 15,0 2 1 W 1013,6 -
17.07.2019 05:00:00 16,0 14,6 0 0 N 1013,8 -
17.07.2019 04:00:00 16,6 15,2 4 2 WSW 1013,7 -
17.07.2019 03:00:00 16,6 15,1 4 2 W 1013,9 -
17.07.2019 02:00:00 17,2 15,5 2 1 WNW 1014,0 -
17.07.2019 01:00:00 18,6 16,3 4 2 W 1013,6 -
17.07.2019 00:00:00 18,8 16,7 5 3 W 1013,5 -
16.07.2019 23:00:00 19,8 17,7 5 3 W - -
16.07.2019 22:00:00 21,2 17,5 4 2 W - -
16.07.2019 21:00:00 25,0 17,9 0 0 N - -

tt = temperature
td = dewpoint
ff = wind speed
dd = wind direction
ppp = reduced air pressure
rr = precipitation

Next stations